Tiempo atmosférico en la estación meteorológica de Arenys De Mar, Barcelona (50 m.)



Fecha
DESCASC
Temp. máxima en grados centígrados (hora)
DESCASC
Temp. mínima en grados centígrados (hora)
DESCASC
Temp. media en grados centígrados
DESCASC
Racha de viento máxima en m/sg (hora)
DESCASC
Velocidad máxima media en intervalos de 10 minutos(hora)
DESCASC
Precipitaciones diarias en mm
DESCASC
Precipitaciones de 00:00 a 06:00 en mm
DESCASC
Precipitaciones de 06:00 a 12:00 en mm
DESCASC
Precipitaciones de 12:00 a 18:00 en mm
DESCASC
Precipitaciones de 18:00 a 24:00 en mm
DESCASC
14-12-2019 19.9 (13:50) 11.5 (21:00) 15.7 12.78 (03:10) 5.28 (03:30) 0 0 0 0 0
13-12-2019 19.5 (13:50) 10.1 (03:10) 14.8 14.44 (07:20) 7.5 (07:30) 0 0 0 0 0
12-12-2019 14.2 (11:50) 5.4 (04:10) 9.8 10 (04:30) 3.89 (04:20) 0 0 0 0 0
11-12-2019 15.2 (12:10) 5.7 (00:00) 10.4 7.5 (13:00) 2.78 (02:10) 2.5 0 0 2.5 0
10-12-2019 15.2 (13:30) 5.3 (00:00) 10.3 5.56 (14:00) 2.22 (02:40) 0 0 0 0 0
09-12-2019 16.5 (13:30) 7.4 (00:00) 12 7.5 (19:10) 3.33 (19:10) 0 0 0 0 0
08-12-2019 16.9 (12:10) 7.6 (00:00) 12.2 4.44 (22:10) 2.78 (22:10) 0 0 0 0 0
07-12-2019 18.3 (13:30) 6.8 (00:00) 12.5 5.28 (00:50) 2.22 (23:59) 0 0 0 0 0
06-12-2019 17.5 (13:40) 8.4 (00:00) 12.9 5.83 (00:10) 2.78 (00:10) 0 0 0 0 0
05-12-2019 13 (23:50) 9.6 (00:00) 11.3 16.11 (10:10) 6.94 (11:40) 27.6 13 2.2 12.3 0.1
04-12-2019 12.9 (00:00) 10.7 (00:00) 11.8 13.89 (15:40) 5 (01:00) 73.2 0.1 9 20.4 43.7
03-12-2019 13.8 (15:50) 5.1 (00:00) 9.5 11.39 (23:30) 4.72 (19:30) 0 0 0 0 0
02-12-2019 16.1 (11:00) 7.3 (00:00) 11.7 3.89 (15:40) 2.22 (23:40) 0 0 0 0 0
01-12-2019 17.9 (12:30) 8.6 (00:00) 13.3 4.17 (12:50) 2.22 (13:00) 0 0 0 0 0
30-11-2019 19 (13:10) 10.5 (00:00) 14.8 7.22 (14:30) 2.78 (13:20) 0 0 0 0 0
29-11-2019 19.1 (11:10) 10.8 (00:00) 15 7.78 (03:20) 3.33 (03:20) 0 0 0 0 0
28-11-2019 19.9 (13:00) 12.3 (00:00) 16.1 9.17 (10:40) 2.78 (02:20) 0 0 0 0 0
27-11-2019 20.5 (11:40) 11.3 (00:00) 15.9 10.83 (08:00) 4.17 (09:50) 0 0 0 0 0
26-11-2019 19.3 (13:20) 8.1 (00:00) 13.7 8.61 (13:30) 3.61 (13:30) 0 0 0 0 0
25-11-2019 17.4 (11:20) 7 (00:00) 12.2 3.89 (03:00) 2.22 (03:00) 0 0 0 0 0
24-11-2019 18.4 (11:20) 7.7 (00:00) 13 4.44 (05:00) 2.22 (08:40) 0 0 0 0 0
23-11-2019 16.8 (12:40) 9.7 (00:00) 13.2 11.11 (14:30) 4.72 (20:00) 14.8 14.8 0 0 0
22-11-2019 17.9 (11:10) 7.9 (00:00) 12.9 12.22 (21:10) 5.28 (21:10) 13.7 0 0 0 13.7
21-11-2019 16.4 (11:20) 7.7 (00:00) 12 6.94 (22:10) 3.33 (14:00) 0 0 0 0 0
20-11-2019 15.3 (11:30) 4 (00:00) 9.7 5.56 (13:20) 2.78 (14:30) 0 0 0 0 0
19-11-2019 14.7 (11:40) 4.9 (00:00) 9.8 4.72 (21:50) 2.5 (21:00) 0 0 0 0 0
18-11-2019 14.6 (13:00) 6.6 (00:00) 10.6 9.72 (08:30) 4.17 (08:30) 0 0 0 0 0
17-11-2019 14.7 (11:40) 3.7 (00:00) 9.2 6.94 (14:30) 2.78 (13:30) 0 0 0 0 0
16-11-2019 14.9 (12:00) 4.6 (00:00) 9.7 6.39 (22:20) 3.33 (22:30) 0 0 0 0 0
15-11-2019 14.7 (13:10) 4.6 (00:00) 9.6 7.22 (14:50) 2.78 (15:50) 0 0 0 0 0

Gráficas

Temp. máximas Temp. mínimas Temp. medias Precipitaciones Rachas de viento máximas Velocidades máximas media en intervalos de 10 minutos

Datos horarios

Fecha y hora oficial Temperatura (ºC) Velocidad del viento (km/h) Dirección del viento Racha (km/h) Dirección de racha Precipitación (mm) Presión (hPa) Tendencia (hPa) Humedad (%)
2019-12-14 23:00:00 12.6 8 Sur 19 Sudoeste 0 -- -- 62
2019-12-14 22:00:00 11.9 2 Nordeste 17 Noroeste 0 -- -- 69
2019-12-14 21:00:00 12.3 6 Norte 13 Norte 0 -- -- 71
2019-12-14 20:00:00 12.3 4 Norte 12 Noroeste 0 -- -- 72
2019-12-14 19:00:00 12.2 4 Noroeste 10 Norte 0 -- -- 75
2019-12-14 18:00:00 12.8 3 Norte 8 Norte 0 -- -- 73
2019-12-14 17:00:00 14.7 0 Calma 6 Sur 0 -- -- 65
2019-12-14 16:00:00 16.8 0 Calma 9 Sudeste 0 -- -- 56
2019-12-14 15:00:00 17.9 2 Sudeste 10 Sudeste 0 -- -- 50
2019-12-14 14:00:00 18.8 2 Nordeste 10 Sur 0 -- -- 45
2019-12-14 13:00:00 18.8 4 Sur 12 Sur 0 -- -- 47
2019-12-14 12:00:00 18.2 2 Sudoeste 13 Sur 0 -- -- 49
2019-12-14 11:00:00 16.7 3 Sur 10 Sudeste 0 -- -- 62
2019-12-14 10:00:00 15.7 2 Nordeste 14 Norte 0 -- -- 52
2019-12-14 09:00:00 13.9 4 Noroeste 13 Noroeste 0 -- -- 56
2019-12-14 08:00:00 12.9 2 Sudoeste 17 Este 0 -- -- 56
2019-12-14 07:00:00 15.6 9 Norte 34 Noroeste 0 -- -- 44
2019-12-14 06:00:00 15.1 3 Sudeste 35 Noroeste 0 -- -- 48
2019-12-14 05:00:00 15.9 17 Noroeste 38 Noroeste 0 -- -- 46
2019-12-14 04:00:00 16.3 9 Norte 46 Noroeste 0 -- -- 45
2019-12-14 03:00:00 16.1 13 Noroeste 41 Noroeste 0 -- -- 48
2019-12-14 02:00:00 16 14 Noroeste 41 Noroeste 0 -- -- 51
2019-12-14 01:00:00 16.2 13 Noroeste 35 Oeste 0 -- -- 52
2019-12-14 00:00:00 15.7 10 Noroeste 32 Norte 0 -- -- 52
2019-12-13 23:00:00 16.2 14 Noroeste 26 Norte 0 -- -- 51
2019-12-13 22:00:00 16.3 14 Noroeste 40 Oeste 0 -- -- 50
2019-12-13 21:00:00 16.6 14 Noroeste 34 Noroeste 0 -- -- 50
2019-12-13 20:00:00 17 12 Noroeste 29 Noroeste 0 -- -- 48
2019-12-13 19:00:00 17.3 9 Noroeste 30 Noroeste 0 -- -- 47
2019-12-13 18:00:00 17.1 6 Oeste 23 Noroeste 0 -- -- 50
2019-12-13 17:00:00 17.9 8 Noroeste 29 Noroeste 0 -- -- 47
2019-12-13 16:00:00 19.3 9 Oeste 31 Oeste 0 -- -- 45
2019-12-13 15:00:00 19.4 9 Oeste 38 Oeste 0 -- -- 45
2019-12-13 14:00:00 18.8 10 Oeste 35 Noroeste 0 -- -- 47
2019-12-13 13:00:00 17.8 6 Oeste 28 Noroeste 0 -- -- 51
2019-12-13 12:00:00 16.6 9 Oeste 40 Oeste 0 -- -- 53
2019-12-13 11:00:00 15.3 5 Noroeste 37 Norte 0 -- -- 57
2019-12-13 10:00:00 14.8 8 Noroeste 21 Oeste 0 -- -- 57
2019-12-13 09:00:00 13.9 7 Oeste 37 Norte 0 -- -- 58
2019-12-13 08:00:00 13.8 14 Noroeste 52 Noroeste 0 -- -- 57
2019-12-13 07:00:00 13.7 12 Noroeste 36 Norte 0 -- -- 57
2019-12-13 06:00:00 13.2 10 Oeste 39 Noroeste 0 -- -- 57
2019-12-13 05:00:00 12.4 5 Oeste 25 Oeste 0 -- -- 61
2019-12-13 04:00:00 11.9 0 Calma 17 Sudoeste 0 -- -- 61
2019-12-13 03:00:00 10.2 2 Noroeste 21 Sudoeste 0 -- -- 67
2019-12-13 02:00:00 10.9 6 Sur 22 Sur 0 -- -- 64
2019-12-13 01:00:00 10.7 8 Sur 24 Sur 0 -- -- 61
2019-12-13 00:00:00 10.8 5 Sur 24 Sudoeste 0 -- -- 59
2019-12-12 23:00:00 10.5 4 Oeste 19 Sudoeste 0 -- -- 59
2019-12-12 22:00:00 10.9 4 Sur 21 Sudoeste 0 -- -- 57
2019-12-12 21:00:00 11 10 Sur 21 Sur 0 -- -- 55
2019-12-12 20:00:00 11.1 5 Sudoeste 31 Sudoeste 0 -- -- 55
2019-12-12 19:00:00 11.6 8 Sudoeste 22 Sudoeste 0 -- -- 53
2019-12-12 18:00:00 11 4 Sudoeste 23 Sudoeste 0 -- -- 53
2019-12-12 17:00:00 11.3 7 Sudoeste 18 Sudoeste 0 -- -- 53
2019-12-12 16:00:00 11.7 5 Sudoeste 24 Sudoeste 0 -- -- 52
2019-12-12 15:00:00 11.7 5 Oeste 20 Oeste 0 -- -- 51
2019-12-12 14:00:00 12.4 5 Sudoeste 25 Sudoeste 0 -- -- 47
2019-12-12 13:00:00 13 8 Sudoeste 25 Sudoeste 0 -- -- 45
2019-12-12 12:00:00 13.1 4 Sur 13 Norte 0 -- -- 43
2019-12-12 11:00:00 9.6 5 Norte 11 Norte 0 -- -- 65
2019-12-12 10:00:00 7.3 4 Norte 9 Sudoeste 0 -- -- 70
2019-12-12 09:00:00 7.2 4 Sudoeste 19 Norte 0 -- -- 65
2019-12-12 08:00:00 6.3 5 Norte 14 Norte 0 -- -- 68
2019-12-12 07:00:00 6.6 6 Norte 14 Nordeste 0 -- -- 62
2019-12-12 06:00:00 7.9 6 Norte 19 Norte 0 -- -- 56
2019-12-12 05:00:00 9 5 Noroeste 36 Noroeste 0 -- -- 49
2019-12-12 04:00:00 5.5 2 Norte 18 Sur 0 -- -- 74
2019-12-12 03:00:00 7.1 3 Sudeste 23 Oeste 0 -- -- 64
2019-12-12 02:00:00 5.8 0 Calma 8 Sur 0 -- -- 87
2019-12-12 01:00:00 6 3 Noroeste 10 Norte 0 -- -- 87
2019-12-12 00:00:00 8.1 5 Oeste 15 Sudoeste 0 -- -- 77
2019-12-11 23:00:00 8.5 8 Sudoeste 17 Sudoeste 0 -- -- 74
2019-12-11 22:00:00 8 2 Oeste 14 Sudoeste 0 -- -- 85
2019-12-11 21:00:00 9.2 6 Sudoeste 14 Sudoeste 0 -- -- 80
2019-12-11 20:00:00 9.1 4 Noroeste 11 Noroeste 0 -- -- 90
2019-12-11 19:00:00 9.4 5 Norte 15 Norte 0 -- -- 90
2019-12-11 18:00:00 9.2 9 Norte 16 Norte 1 -- -- 90
2019-12-11 17:00:00 9.4 0 Calma 10 Este 1.5 -- -- 81
2019-12-11 16:00:00 12.3 2 Este 8 Sudeste 0 -- -- 56
2019-12-11 15:00:00 13.7 0 Calma 13 Sur 0 -- -- 51
2019-12-11 14:00:00 14 4 Sur 23 Sudoeste 0 -- -- 45
2019-12-11 13:00:00 14.1 9 Sudoeste 27 Oeste 0 -- -- 41
2019-12-11 12:00:00 14.6 7 Oeste 24 Oeste 0 -- -- 41
2019-12-11 11:00:00 13.9 5 Oeste 26 Noroeste 0 -- -- 42
2019-12-11 10:00:00 12 0 Calma 9 Oeste 0 -- -- 55
2019-12-11 09:00:00 10.3 3 Oeste 13 Noroeste 0 -- -- 55
2019-12-11 08:00:00 10.8 2 Oeste 18 Oeste 0 -- -- 57
2019-12-11 07:00:00 9.4 0 Calma 26 Oeste 0 -- -- 61
2019-12-11 06:00:00 9.6 5 Noroeste 20 Oeste 0 -- -- 56
2019-12-11 05:00:00 10.2 5 Oeste 18 Oeste 0 -- -- 60
2019-12-11 04:00:00 10.5 4 Oeste 15 Oeste 0 -- -- 56
2019-12-11 03:00:00 10.1 8 Sudoeste 14 Sudoeste 0 -- -- 62
2019-12-11 02:00:00 9.6 7 Oeste 17 Sudoeste 0 -- -- 61
2019-12-11 01:00:00 6.7 5 Norte 10 Norte 0 -- -- 65
2019-12-11 00:00:00 5.7 2 Norte 10 Norte 0 -- -- 70
2019-12-10 23:00:00 6.7 5 Norte 12 Noroeste 0 -- -- 67
2019-12-10 22:00:00 6.8 5 Norte 13 Norte 0 -- -- 74
2019-12-10 21:00:00 7.2 5 Norte 12 Norte 0 -- -- 76
2019-12-10 20:00:00 7.4 7 Norte 12 Norte 0 -- -- 79
2019-12-10 19:00:00 8 6 Norte 13 Norte 0 -- -- 80
2019-12-10 18:00:00 8.2 5 Norte 11 Norte 0 -- -- 81
2019-12-10 17:00:00 9.7 0 Calma 6 Sudoeste 0 -- -- 79
2019-12-10 16:00:00 12.3 3 Sur 13 Sur 0 -- -- 61
2019-12-10 15:00:00 13.3 6 Sur 14 Sur 0 -- -- 55
2019-12-10 14:00:00 13 6 Sur 20 Sur 0 -- -- 52
2019-12-10 13:00:00 14.3 6 Sur 18 Sudoeste 0 -- -- 50
2019-12-10 12:00:00 14.1 5 Sur 13 Sudeste 0 -- -- 46
2019-12-10 11:00:00 13.1 5 Sudoeste 12 Sudoeste 0 -- -- 54
2019-12-10 10:00:00 9.1 0 Calma 9 Norte 0 -- -- 66
2019-12-10 09:00:00 7.3 5 Norte 14 Norte 0 -- -- 66
2019-12-10 08:00:00 5.4 6 Norte 16 Norte 0 -- -- 76
2019-12-10 07:00:00 5.6 7 Norte 15 Norte 0 -- -- 79
2019-12-10 06:00:00 5.9 5 Norte 13 Norte 0 -- -- 80
2019-12-10 05:00:00 6.2 4 Norte 14 Norte 0 -- -- 74
2019-12-10 04:00:00 7.2 5 Noroeste 13 Norte 0 -- -- 70
2019-12-10 03:00:00 7.7 4 Norte 19 Norte 0 -- -- 75
2019-12-10 02:00:00 7.4 6 Norte 13 Noroeste 0 -- -- 74
2019-12-10 01:00:00 8.6 4 Norte 13 Norte 0 -- -- 72
2019-12-10 00:00:00 8.3 4 Norte 12 Norte 0 -- -- 74
2019-12-09 23:00:00 9.3 4 Nordeste 13 Norte 0 -- -- 52
2019-12-09 22:00:00 8.4 3 Norte 13 Noroeste 0 -- -- 52
2019-12-09 21:00:00 9.3 6 Norte 12 Norte 0 -- -- 56
2019-12-09 20:00:00 11.3 0 Calma 27 Sudoeste 0 -- -- 46
2019-12-09 19:00:00 13.8 6 Noroeste 18 Norte 0 -- -- 37
2019-12-09 18:00:00 14.3 7 Noroeste 26 Noroeste 0 -- -- 41
2019-12-09 17:00:00 14.5 3 Oeste 14 Oeste 0 -- -- 42
2019-12-09 16:00:00 15.5 2 Oeste 17 Noroeste 0 -- -- 38
2019-12-09 15:00:00 16 7 Norte 18 Noroeste 0 -- -- 36
2019-12-09 14:00:00 16 3 Oeste 22 Oeste 0 -- -- 36
2019-12-09 13:00:00 15.4 7 Oeste 21 Oeste 0 -- -- 38
2019-12-09 12:00:00 14.8 7 Noroeste 22 Sudoeste 0 -- -- 40
2019-12-09 11:00:00 16.3 0 Calma 11 Norte 0 -- -- 46
2019-12-09 10:00:00 11.4 6 Norte 12 Norte 0 -- -- 65
2019-12-09 09:00:00 8.9 0 Calma 15 Norte 0 -- -- 78
2019-12-09 08:00:00 8.5 7 Norte 15 Norte 0 -- -- 78
2019-12-09 07:00:00 7.8 0 Calma 9 Norte 0 -- -- 88
2019-12-09 06:00:00 7.6 4 Norte 9 Norte 0 -- -- 89
2019-12-09 05:00:00 8.1 3 Noroeste 7 Norte 0 -- -- 91
2019-12-09 04:00:00 7.7 0 Calma 5 Norte 0 -- -- 91
2019-12-09 03:00:00 8.6 6 Norte 9 Norte 0 -- -- 90
2019-12-09 02:00:00 9.2 4 Norte 7 Norte 0 -- -- 87
2019-12-09 01:00:00 10.2 0 Calma 9 Oeste 0 -- -- 83
2019-12-09 00:00:00 10 0 Calma 10 Norte 0 -- -- 79
2019-12-08 23:00:00 10.1 4 Norte 16 Norte 0 -- -- 75
2019-12-08 22:00:00 10.1 9 Norte 15 Norte 0 -- -- 75
2019-12-08 21:00:00 8.9 4 Norte 13 Norte 0 -- -- 82
2019-12-08 20:00:00 9.7 6 Norte 12 Norte 0 -- -- 80
2019-12-08 19:00:00 9.8 6 Norte 10 Norte 0 -- -- 79
2019-12-08 18:00:00 10 4 Norte 9 Norte 0 -- -- 80
2019-12-08 17:00:00 11.5 2 Norte 9 Sudoeste 0 -- -- 71
2019-12-08 16:00:00 13.9 2 Sudeste 9 Sudeste 0 -- -- 62
2019-12-08 15:00:00 14.2 2 Sur 9 Sur 0 -- -- 59
2019-12-08 14:00:00 14 0 Calma 13 Nordeste 0 -- -- 55
2019-12-08 13:00:00 16.1 4 Sur 10 Sudeste 0 -- -- 51
2019-12-08 12:00:00 16.5 3 Sudeste 10 Sudeste 0 -- -- 49
2019-12-08 11:00:00 15.5 3 Sudeste 9 Sudeste 0 -- -- 56
2019-12-08 10:00:00 11.2 2 Nordeste 10 Norte 0 -- -- 81
2019-12-08 09:00:00 9 4 Norte 11 Norte 0 -- -- 87
2019-12-08 08:00:00 7.8 4 Norte 9 Norte 0 -- -- 88
2019-12-08 07:00:00 8 5 Norte 9 Norte 0 -- -- 87
2019-12-08 06:00:00 8 5 Norte 10 Norte 0 -- -- 87
2019-12-08 05:00:00 8.1 6 Norte 10 Norte 0 -- -- 88
2019-12-08 04:00:00 8.5 5 Norte 11 Norte 0 -- -- 88
2019-12-08 03:00:00 8.6 7 Norte 10 Norte 0 -- -- 88
2019-12-08 02:00:00 8.8 5 Noroeste 13 Norte 0 -- -- 84
2019-12-08 01:00:00 8.7 4 Noroeste 14 Norte 0 -- -- 83
2019-12-08 00:00:00 8.7 8 Norte 13 Norte 0 -- -- 83
2019-12-07 23:00:00 8.2 4 Norte 9 Norte 0 -- -- 85
2019-12-07 22:00:00 8.7 4 Norte 10 Noroeste 0 -- -- 82
2019-12-07 21:00:00 9.3 3 Norte 11 Norte 0 -- -- 78
2019-12-07 20:00:00 9.6 6 Norte 12 Norte 0 -- -- 76
2019-12-07 19:00:00 9.9 6 Norte 11 Norte 0 -- -- 76
2019-12-07 18:00:00 10.4 3 Noroeste 9 Norte 0 -- -- 82
2019-12-07 17:00:00 11.9 0 Calma 3 Sur 0 -- -- 78
2019-12-07 16:00:00 14.1 0 Calma 7 Sur 0 -- -- 65
2019-12-07 15:00:00 14.4 3 Sur 8 Sur 0 -- -- 63
2019-12-07 14:00:00 15.8 0 Calma 8 Sur 0 -- -- 45
2019-12-07 13:00:00 18 2 Sudeste 10 Sudeste 0 -- -- 45
2019-12-07 12:00:00 17.6 0 Calma 5 Sur 0 -- -- 49
2019-12-07 11:00:00 16.1 0 Calma 2 Este 0 -- -- 51
2019-12-07 10:00:00 10.6 0 Calma 8 Nordeste 0 -- -- 83
2019-12-07 09:00:00 7.4 2 Nordeste 9 Norte 0 -- -- 88
2019-12-07 08:00:00 6.9 3 Norte 10 Norte 0 -- -- 88
2019-12-07 07:00:00 7.4 4 Norte 12 Noroeste 0 -- -- 88
2019-12-07 06:00:00 7.5 4 Noroeste 12 Norte 0 -- -- 88
2019-12-07 05:00:00 7.6 4 Norte 11 Norte 0 -- -- 85
2019-12-07 04:00:00 8.9 5 Norte 10 Norte 0 -- -- 82
2019-12-07 03:00:00 8.5 2 Oeste 10 Sur 0 -- -- 80
2019-12-07 02:00:00 10.6 0 Calma 17 Sudoeste 0 -- -- 67
2019-12-07 01:00:00 11.2 0 Calma 19 Noroeste 0 -- -- 66
2019-12-07 00:00:00 10.8 4 Oeste 13 Oeste 0 -- -- 79
2019-12-06 23:00:00 8.9 2 Oeste 8 Noroeste 0 -- -- 91
2019-12-06 22:00:00 8.8 0 Calma 9 Norte 0 -- -- 91
2019-12-06 21:00:00 9.6 5 Norte 10 Norte 0 -- -- 90
2019-12-06 20:00:00 10 4 Norte 7 Norte 0 -- -- 89
2019-12-06 19:00:00 10.1 3 Norte 8 Norte 0 -- -- 89
2019-12-06 18:00:00 10.8 4 Norte 5 Norte 0 -- -- 88
2019-12-06 17:00:00 12.6 0 Calma 11 Sur 0 -- -- 77
2019-12-06 16:00:00 14.3 4 Sur 14 Sur 0 -- -- 65
2019-12-06 15:00:00 15.2 4 Sur 13 Sur 0 -- -- 57
2019-12-06 14:00:00 15.5 6 Sudoeste 12 Sudoeste 0 -- -- 46
2019-12-06 13:00:00 16.2 4 Sur 9 Sur 0 -- -- 47
2019-12-06 12:00:00 16.4 0 Calma 8 Norte 0 -- -- 52
2019-12-06 11:00:00 14 5 Norte 10 Norte 0 -- -- 60
2019-12-06 10:00:00 13.4 4 Norte 14 Norte 0 -- -- 59
2019-12-06 09:00:00 10.2 3 Noroeste 9 Norte 0 -- -- 67
2019-12-06 08:00:00 9.2 3 Oeste 10 Norte 0 -- -- 72
2019-12-06 07:00:00 9.7 4 Norte 6 Norte 0 -- -- 78
2019-12-06 06:00:00 9.4 0 Calma 6 Norte 0 -- -- 80
2019-12-06 05:00:00 10.7 0 Calma 6 Sudoeste 0 -- -- 72
2019-12-06 04:00:00 11.2 0 Calma 8 Noroeste 0 -- -- 65
2019-12-06 03:00:00 13.1 7 Norte 19 Norte 0 -- -- 48
2019-12-06 02:00:00 12.8 6 Norte 20 Norte 0 -- -- 52
2019-12-06 01:00:00 13.2 8 Norte 21 Norte 0 -- -- 55
2019-12-06 00:00:00 13 10 Norte 23 Norte 0 -- -- 57
2019-12-05 23:00:00 12.6 12 Norte 29 Nordeste 0 -- -- 60
2019-12-05 22:00:00 11.8 13 Norte 30 Norte 0 -- -- 65
2019-12-05 21:00:00 11.5 14 Norte 32 Norte 0 -- -- 62
2019-12-05 20:00:00 11.7 12 Norte 28 Norte 0.1 -- -- 58
2019-12-05 19:00:00 11.7 9 Norte 23 Norte 0 -- -- 65
2019-12-05 18:00:00 10.8 14 Norte 37 Nordeste 0.8 -- -- 75
2019-12-05 17:00:00 10.6 18 Norte 42 Norte 0.5 -- -- 75
2019-12-05 16:00:00 10.2 16 Norte 39 Norte 2.4 -- -- 79
2019-12-05 15:00:00 9.7 11 Norte 44 Norte 5.7 -- -- 81
2019-12-05 14:00:00 10.1 18 Norte 48 Norte 2.6 -- -- 80
2019-12-05 13:00:00 11.6 23 Norte 54 Nordeste 0.3 -- -- 64
2019-12-05 12:00:00 11.6 22 Norte 55 Norte 0 -- -- 62
2019-12-05 11:00:00 12.6 21 Norte 58 Noroeste 0 -- -- 57
2019-12-05 10:00:00 11.6 19 Norte 49 Norte 0.2 -- -- 69
2019-12-05 09:00:00 11.4 21 Norte 48 Norte 0.5 -- -- 72
2019-12-05 08:00:00 10.8 18 Norte 50 Norte 0.4 -- -- 79
2019-12-05 07:00:00 10.6 19 Norte 45 Norte 1.1 -- -- 83
2019-12-05 06:00:00 10.8 15 Norte 38 Nordeste 2.7 -- -- 86
2019-12-05 05:00:00 10.6 17 Norte 37 Nordeste 2.5 -- -- 85
2019-12-05 04:00:00 10.7 17 Norte 40 Norte 2.6 -- -- 86
2019-12-05 03:00:00 10.7 13 Norte 41 Nordeste 1.3 -- -- 86
2019-12-05 02:00:00 10.9 14 Norte 37 Norte 1.9 -- -- 85
2019-12-05 01:00:00 11 14 Norte 34 Norte 2 -- -- 87
2019-12-05 00:00:00 11.1 13 Norte 31 Nordeste 2.1 -- -- 87
2019-12-04 23:00:00 11.1 12 Norte 37 Norte 2.8 -- -- 88
2019-12-04 22:00:00 11.4 10 Norte 31 Norte 0.8 -- -- 88
2019-12-04 21:00:00 11.4 4 Norte 27 Norte 11.1 -- -- 92
2019-12-04 20:00:00 11.2 3 Nordeste 39 Norte 19.2 -- -- 92
2019-12-04 19:00:00 11 14 Norte 37 Norte 7.7 -- -- 89
2019-12-04 18:00:00 11.7 11 Nordeste 42 Norte 2.8 -- -- 88
2019-12-04 17:00:00 11.7 14 Norte 43 Norte 3.4 -- -- 88
2019-12-04 16:00:00 12 18 Norte 50 Norte 3.8 -- -- 87
2019-12-04 15:00:00 11.8 12 Norte 41 Norte 5 -- -- 88
2019-12-04 14:00:00 11.8 14 Norte 39 Nordeste 3.1 -- -- 88
2019-12-04 13:00:00 11.8 14 Norte 40 Nordeste 2.3 -- -- 87
2019-12-04 12:00:00 11.6 13 Norte 34 Norte 4 -- -- 88
2019-12-04 11:00:00 11.5 14 Norte 34 Norte 1.5 -- -- 88
2019-12-04 10:00:00 11.4 15 Norte 38 Nordeste 0.9 -- -- 88
2019-12-04 09:00:00 11.6 16 Norte 49 Norte 2.2 -- -- 87
2019-12-04 08:00:00 11.5 15 Norte 39 Norte 0.4 -- -- 83
2019-12-04 07:00:00 11.3 17 Norte 41 Norte 0 -- -- 84
2019-12-04 06:00:00 11.7 17 Norte 42 Norte 0.1 -- -- 82
2019-12-04 05:00:00 11.7 12 Norte 35 Norte 0 -- -- 79
2019-12-04 04:00:00 12.1 15 Nordeste 43 Norte 0 -- -- 76
2019-12-04 03:00:00 12.3 14 Nordeste 42 Nordeste 0 -- -- 72
2019-12-04 02:00:00 12.4 16 Norte 41 Nordeste 0 -- -- 70
2019-12-04 01:00:00 12.7 18 Norte 43 Norte 0 -- -- 66
2019-12-04 00:00:00 12.9 17 Norte 41 Nordeste 0 -- -- 64
2019-12-03 23:00:00 13.1 14 Norte 38 Nordeste 0 -- -- 63
2019-12-03 22:00:00 12.8 13 Norte 35 Norte 0 -- -- 61
2019-12-03 21:00:00 12.7 12 Norte 38 Nordeste 0 -- -- 61
2019-12-03 20:00:00 12.5 13 Norte 36 Norte 0 -- -- 59
2019-12-03 19:00:00 12.6 14 Norte 31 Norte 0 -- -- 56
2019-12-03 18:00:00 12.5 12 Norte 32 Nordeste 0 -- -- 54
2019-12-03 17:00:00 12.8 13 Norte 33 Norte 0 -- -- 50
2019-12-03 16:00:00 13.4 13 Norte 35 Norte 0 -- -- 47
2019-12-03 15:00:00 12.9 10 Norte 31 Nordeste 0 -- -- 43
2019-12-03 14:00:00 13 10 Norte 28 Nordeste 0 -- -- 39
2019-12-03 13:00:00 13.3 10 Norte 30 Norte 0 -- -- 37
2019-12-03 12:00:00 13.6 9 Norte 24 Norte 0 -- -- 36
2019-12-03 11:00:00 12.6 6 Norte 20 Norte 0 -- -- 38
2019-12-03 10:00:00 7.5 4 Nordeste 13 Norte 0 -- -- 73
2019-12-03 09:00:00 6.5 4 Norte 9 Noroeste 0 -- -- 77
2019-12-03 08:00:00 7.2 6 Norte 14 Noroeste 0 -- -- 71
2019-12-03 07:00:00 7 3 Noroeste 12 Norte 0 -- -- 75
2019-12-03 06:00:00 6.2 8 Norte 14 Norte 0 -- -- 84
2019-12-03 05:00:00 5.4 2 Norte 9 Nordeste 0 -- -- 88
2019-12-03 04:00:00 6.4 5 Norte 12 Norte 0 -- -- 84
2019-12-03 03:00:00 6.8 6 Norte 12 Norte 0 -- -- 82
2019-12-03 02:00:00 6.8 6 Norte 10 Norte 0 -- -- 83
2019-12-03 01:00:00 7 3 Norte 8 Norte 0 -- -- 81
2019-12-03 00:00:00 7.7 4 Norte 12 Norte 0 -- -- 75
2019-12-02 23:00:00 8.4 6 Norte 13 Noroeste 0 -- -- 77
2019-12-02 22:00:00 8 4 Norte 12 Norte 0 -- -- 78
2019-12-02 21:00:00 8.7 5 Norte 9 Norte 0 -- -- 73
2019-12-02 20:00:00 9.1 5 Norte 8 Norte 0 -- -- 70
2019-12-02 19:00:00 9.5 3 Noroeste 9 Norte 0 -- -- 71
2019-12-02 18:00:00 11.2 4 Noroeste 8 Norte 0 -- -- 69
2019-12-02 17:00:00 13.3 0 Calma 5 Noroeste 0 -- -- 57
2019-12-02 16:00:00 13.8 4 Oeste 14 Sudoeste 0 -- -- 49
2019-12-02 15:00:00 14.2 6 Sur 12 Sur 0 -- -- 47
2019-12-02 14:00:00 15 4 Sudoeste 11 Sudoeste 0 -- -- 45
2019-12-02 13:00:00 14.9 6 Sur 14 Sudoeste 0 -- -- 42
2019-12-02 12:00:00 15.1 4 Sudoeste 9 Sur 0 -- -- 41
2019-12-02 11:00:00 15.6 0 Calma 6 Sur 0 -- -- 39
2019-12-02 10:00:00 11.3 0 Calma 7 Noroeste 0 -- -- 60
2019-12-02 09:00:00 9 3 Norte 6 Noroeste 0 -- -- 67
2019-12-02 08:00:00 7.7 3 Norte 12 Norte 0 -- -- 66
2019-12-02 07:00:00 7.4 5 Noroeste 13 Norte 0 -- -- 70
2019-12-02 06:00:00 7.9 7 Norte 13 Norte 0 -- -- 70
2019-12-02 05:00:00 8 5 Noroeste 12 Noroeste 0 -- -- 70
2019-12-02 04:00:00 7.9 4 Norte 12 Norte 0 -- -- 75
2019-12-02 03:00:00 8.5 3 Noroeste 11 Norte 0 -- -- 79
2019-12-02 02:00:00 9.2 5 Norte 11 Norte 0 -- -- 76
2019-12-02 01:00:00 8.8 5 Norte 11 Norte 0 -- -- 80
2019-12-02 00:00:00 8.8 5 Norte 8 Norte 0 -- -- 83
2019-12-01 23:00:00 8.9 2 Norte 9 Norte 0 -- -- 85
2019-12-01 22:00:00 9.6 0 Calma 6 Norte 0 -- -- 86
2019-12-01 21:00:00 11.1 2 Oeste 7 Norte 0 -- -- 86
2019-12-01 20:00:00 12.6 2 Norte 7 Norte 0 -- -- 83
2019-12-01 19:00:00 13.1 0 Calma 5 Norte 0 -- -- 82
2019-12-01 18:00:00 13.2 0 Calma 5 Este 0 -- -- 82
2019-12-01 17:00:00 13.6 0 Calma 7 Sudeste 0 -- -- 78
2019-12-01 16:00:00 14.1 3 Sur 11 Sur 0 -- -- 77
2019-12-01 15:00:00 15.1 5 Sur 13 Sudeste 0 -- -- 71
2019-12-01 14:00:00 15.7 5 Sur 13 Sudoeste 0 -- -- 66
2019-12-01 13:00:00 16.2 8 Sur 15 Sur 0 -- -- 63
2019-12-01 12:00:00 15.4 5 Sudoeste 10 Sur 0 -- -- 66
2019-12-01 11:00:00 14.7 0 Calma 10 Norte 0 -- -- 71
2019-12-01 10:00:00 12.5 5 Norte 12 Norte 0 -- -- 76
2019-12-01 09:00:00 12.3 0 Calma 8 Norte 0 -- -- 87
2019-12-01 08:00:00 12.2 3 Noroeste 7 Norte 0 -- -- 87
2019-12-01 07:00:00 11.8 3 Nordeste 13 Norte 0 -- -- 87
2019-12-01 06:00:00 11.3 5 Norte 10 Norte 0 -- -- 90
2019-12-01 05:00:00 11.5 3 Norte 8 Noroeste 0 -- -- 90
2019-12-01 04:00:00 12.3 0 Calma 2 Nordeste 0 -- -- 89
2019-12-01 03:00:00 13.2 0 Calma 6 Nordeste 0 -- -- 86
2019-12-01 02:00:00 12.8 2 Norte 9 Norte 0 -- -- 85
2019-12-01 01:00:00 12.3 4 Norte 8 Norte 0 -- -- 88
2019-12-01 00:00:00 11.6 3 Norte 6 Nordeste 0 -- -- 90
2019-11-30 23:00:00 11.3 0 Calma 9 Sudoeste 0 -- -- 89
2019-11-30 22:00:00 12.5 3 Oeste 8 Oeste 0 -- -- 88
2019-11-30 21:00:00 13.5 3 Sudoeste 14 Sudoeste 0 -- -- 86
2019-11-30 20:00:00 14.6 5 Sudoeste 13 Sudoeste 0 -- -- 86
2019-11-30 19:00:00 14.6 4 Sudoeste 16 Sur 0 -- -- 87
2019-11-30 18:00:00 14 0 Calma 13 Sudoeste 0 -- -- 87
2019-11-30 17:00:00 14.6 6 Sudoeste 17 Sudoeste 0 -- -- 80
2019-11-30 16:00:00 15.4 6 Sudoeste 23 Sudoeste 0 -- -- 78
2019-11-30 15:00:00 15.9 10 Sudoeste 26 Sudoeste 0 -- -- 72
2019-11-30 14:00:00 17.6 7 Sudoeste 20 Sudoeste 0 -- -- 55
2019-11-30 13:00:00 18.3 6 Sudoeste 19 Sur 0 -- -- 50
2019-11-30 12:00:00 17 9 Sur 21 Sur 0 -- -- 53
2019-11-30 11:00:00 17.1 5 Sur 10 Sur 0 -- -- 55
2019-11-30 10:00:00 14.5 5 Sudoeste 11 Sudoeste 0 -- -- 71
2019-11-30 09:00:00 12.4 4 Norte 8 Norte 0 -- -- 86
2019-11-30 08:00:00 10.9 3 Nordeste 8 Norte 0 -- -- 90
2019-11-30 07:00:00 11.4 4 Norte 9 Norte 0 -- -- 89
2019-11-30 06:00:00 11.4 4 Norte 8 Noroeste 0 -- -- 90
2019-11-30 05:00:00 11.8 4 Norte 10 Norte 0 -- -- 89
2019-11-30 04:00:00 11.5 4 Norte 8 Norte 0 -- -- 90
2019-11-30 03:00:00 11.6 3 Norte 9 Norte 0 -- -- 90
2019-11-30 02:00:00 12.1 3 Norte 8 Norte 0 -- -- 89
2019-11-30 01:00:00 11.4 4 Norte 8 Norte 0 -- -- 90
2019-11-30 00:00:00 11 5 Norte 9 Norte 0 -- -- 88
2019-11-29 23:00:00 11 6 Norte 10 Norte 0 -- -- 88
2019-11-29 22:00:00 11.7 2 Noroeste 9 Norte 0 -- -- 87
2019-11-29 21:00:00 12.3 3 Norte 8 Norte 0 -- -- 87
2019-11-29 20:00:00 12.1 2 Noroeste 5 Norte 0 -- -- 87
2019-11-29 19:00:00 13.4 3 Norte 6 Norte 0 -- -- 83
2019-11-29 18:00:00 13.6 2 Norte 5 Sudoeste 0 -- -- 83
2019-11-29 17:00:00 14.6 0 Calma 5 Este 0 -- -- 77
2019-11-29 16:00:00 15.1 0 Calma 8 Sudeste 0 -- -- 73
2019-11-29 15:00:00 15 2 Este 12 Sudeste 0 -- -- 69
2019-11-29 14:00:00 16.6 5 Sudeste 14 Sudeste 0 -- -- 69
2019-11-29 13:00:00 16.9 3 Sudeste 17 Este 0 -- -- 64
2019-11-29 12:00:00 18.9 3 Sudeste 11 Este 0 -- -- 55
2019-11-29 11:00:00 18.7 0 Calma 8 Nordeste 0 -- -- 55
2019-11-29 10:00:00 14.3 0 Calma 8 Noroeste 0 -- -- 74
2019-11-29 09:00:00 12.1 3 Norte 8 Norte 0 -- -- 77
2019-11-29 08:00:00 11.6 3 Noroeste 9 Noroeste 0 -- -- 77
2019-11-29 07:00:00 12 3 Norte 9 Norte 0 -- -- 72
2019-11-29 06:00:00 12.6 2 Norte 9 Nordeste 0 -- -- 65
2019-11-29 05:00:00 14.6 3 Sudeste 15 Sudeste 0 -- -- 55
2019-11-29 04:00:00 15.3 6 Sur 28 Sudoeste 0 -- -- 51
2019-11-29 03:00:00 15.4 3 Oeste 16 Noroeste 0 -- -- 51
2019-11-29 02:00:00 14.9 0 Calma 17 Sudoeste 0 -- -- 55
2019-11-29 01:00:00 15.7 2 Sudeste 13 Oeste 0 -- -- 51
2019-11-29 00:00:00 15.9 7 Noroeste 22 Oeste 0 -- -- 49
2019-11-28 23:00:00 16.1 6 Oeste 24 Noroeste 0 -- -- 48
2019-11-28 22:00:00 16.8 10 Noroeste 21 Noroeste 0 -- -- 47
2019-11-28 21:00:00 15.8 4 Oeste 29 Noroeste 0 -- -- 51
2019-11-28 20:00:00 16.1 5 Oeste 12 Sudoeste 0 -- -- 52
2019-11-28 19:00:00 13.6 2 Sudoeste 8 Sudoeste 0 -- -- 60
2019-11-28 18:00:00 16.1 3 Sudoeste 18 Oeste 0 -- -- 49
2019-11-28 17:00:00 16.6 6 Sur 13 Noroeste 0 -- -- 47
2019-11-28 16:00:00 17.9 5 Oeste 22 Sudoeste 0 -- -- 42
2019-11-28 15:00:00 18.7 7 Sudoeste 24 Sudoeste 0 -- -- 40
2019-11-28 14:00:00 18.8 7 Oeste 28 Oeste 0 -- -- 40
2019-11-28 13:00:00 19.9 8 Sudoeste 24 Sudoeste 0 -- -- 39
2019-11-28 12:00:00 18.7 5 Noroeste 21 Sudoeste 0 -- -- 39
2019-11-28 11:00:00 18.8 5 Oeste 33 Oeste 0 -- -- 41
2019-11-28 10:00:00 16.9 9 Oeste 25 Noroeste 0 -- -- 44
2019-11-28 09:00:00 14.2 3 Nordeste 16 Este 0 -- -- 52
2019-11-28 08:00:00 13.4 5 Sudoeste 24 Oeste 0 -- -- 53
2019-11-28 07:00:00 13.3 9 Oeste 23 Oeste 0 -- -- 52
2019-11-28 06:00:00 13.4 9 Oeste 23 Oeste 0 -- -- 53
2019-11-28 05:00:00 12.6 4 Sudoeste 26 Oeste 0 -- -- 55
2019-11-28 04:00:00 13.1 7 Sudoeste 17 Sudoeste 0 -- -- 53
2019-11-28 03:00:00 13.6 6 Sudoeste 23 Oeste 0 -- -- 51
2019-11-28 02:00:00 13.9 10 Sudoeste 21 Oeste 0 -- -- 49
2019-11-28 01:00:00 13.2 4 Sudoeste 13 Sudoeste 0 -- -- 51
2019-11-28 00:00:00 14.4 5 Oeste 13 Oeste 0 -- -- 50
2019-11-27 23:00:00 12.7 0 Calma 6 Oeste 0 -- -- 60
2019-11-27 22:00:00 13.8 4 Sudoeste 8 Oeste 0 -- -- 55
2019-11-27 21:00:00 12.9 0 Calma 12 Sudoeste 0 -- -- 54
2019-11-27 20:00:00 14.1 6 Oeste 14 Oeste 0 -- -- 51
2019-11-27 19:00:00 14.3 0 Calma 11 Sudoeste 0 -- -- 49
2019-11-27 18:00:00 16.2 8 Noroeste 24 Oeste 0 -- -- 44
2019-11-27 17:00:00 15.8 5 Oeste 19 Oeste 0 -- -- 46
2019-11-27 16:00:00 17.3 3 Sudoeste 20 Sudoeste 0 -- -- 42
2019-11-27 15:00:00 17.5 3 Este 14 Nordeste 0 -- -- 45
2019-11-27 14:00:00 17 3 Noroeste 19 Oeste 0 -- -- 51
2019-11-27 06:00:00 15.4 8 Oeste 23 Oeste 0 -- -- 55
2019-11-27 05:00:00 14.9 5 Oeste 17 Oeste 0 -- -- 56
2019-11-27 04:00:00 13.7 5 Sudoeste 17 Sudoeste 0 -- -- 65
2019-11-27 03:00:00 11.5 0 Calma 13 Sudoeste 0 -- -- 75
2019-11-27 02:00:00 11.6 0 Calma 13 Sudoeste 0 -- -- 75
2019-11-27 01:00:00 13.8 5 Sudoeste 16 Sudoeste 0 -- -- 66
2019-11-27 00:00:00 12.9 0 Calma 10 Sur 0 -- -- 66
2019-11-26 23:00:00 14.1 6 Sur 17 Oeste 0 -- -- 59
2019-11-26 22:00:00 15.9 5 Oeste 19 Sudoeste 0 -- -- 50
2019-11-26 21:00:00 15.3 6 Oeste 17 Oeste 0 -- -- 54
2019-11-26 20:00:00 15.2 6 Sudoeste 19 Sudoeste 0 -- -- 60
2019-11-26 19:00:00 13.4 0 Calma 13 Sudoeste 0 -- -- 75
2019-11-26 18:00:00 15.5 3 Sudoeste 17 Sudoeste 0 -- -- 68
2019-11-26 17:00:00 15.9 4 Sur 14 Sudoeste 0 -- -- 67
2019-11-26 16:00:00 16.6 7 Sur 22 Sudoeste 0 -- -- 64
2019-11-26 15:00:00 17.4 6 Sur 25 Sur 0 -- -- 59
2019-11-26 14:00:00 18.4 7 Sudoeste 31 Sudoeste 0 -- -- 45
2019-11-26 13:00:00 18.6 12 Sur 29 Sur 0 -- -- 43
2019-11-26 12:00:00 18.7 5 Sudoeste 24 Sudoeste 0 -- -- 43
2019-11-26 11:00:00 16.9 12 Sudoeste 22 Sudoeste 0 -- -- 49
2019-11-26 10:00:00 14.9 4 Sudoeste 12 Sur 0 -- -- 63
2019-11-26 09:00:00 9.6 0 Calma 5 Norte 0 -- -- 89
2019-11-26 08:00:00 8.6 4 Norte 12 Norte 0 -- -- 88
2019-11-26 07:00:00 8.3 0 Calma 7 Nordeste 0 -- -- 90
2019-11-26 06:00:00 8.8 4 Norte 10 Norte 0 -- -- 89
2019-11-26 05:00:00 8.2 0 Calma 7 Norte 0 -- -- 90
2019-11-26 04:00:00 8.6 3 Norte 8 Norte 0 -- -- 89
2019-11-26 03:00:00 8.6 0 Calma 8 Norte 0 -- -- 87
2019-11-26 02:00:00 9.7 4 Norte 10 Norte 0 -- -- 81
2019-11-26 01:00:00 9.7 6 Norte 10 Norte 0 -- -- 81
2019-11-26 00:00:00 9.3 4 Norte 9 Norte 0 -- -- 82
2019-11-25 23:00:00 9.9 5 Norte 9 Noroeste 0 -- -- 74
2019-11-25 22:00:00 9.6 5 Norte 13 Norte 0 -- -- 77
2019-11-25 21:00:00 9.6 5 Norte 9 Norte 0 -- -- 78
2019-11-25 20:00:00 9.9 5 Norte 9 Norte 0 -- -- 79
2019-11-25 19:00:00 10.4 5 Norte 10 Norte 0 -- -- 77
2019-11-25 18:00:00 10.8 3 Norte 7 Norte 0 -- -- 75
2019-11-25 17:00:00 12.3 0 Calma 4 Sudoeste 0 -- -- 66
2019-11-25 16:00:00 14.6 3 Sur 8 Sur 0 -- -- 51
2019-11-25 15:00:00 15.3 2 Este 10 Sur 0 -- -- 47
2019-11-25 14:00:00 15.4 4 Sur 8 Sudoeste 0 -- -- 44
2019-11-25 13:00:00 16.3 4 Sur 11 Nordeste 0 -- -- 41
2019-11-25 12:00:00 17.1 3 Sur 8 Sudeste 0 -- -- 42
2019-11-25 11:00:00 16.7 2 Sudeste 10 Este 0 -- -- 43
2019-11-25 10:00:00 13.9 3 Sur 8 Sudoeste 0 -- -- 53
2019-11-25 09:00:00 10 3 Norte 9 Norte 0 -- -- 73
2019-11-25 08:00:00 7.5 6 Norte 12 Norte 0 -- -- 78
2019-11-25 07:00:00 8 6 Norte 14 Norte 0 -- -- 75
2019-11-25 06:00:00 8.1 3 Norte 8 Norte 0 -- -- 75
2019-11-25 05:00:00 8.9 5 Norte 14 Norte 0 -- -- 72
2019-11-25 04:00:00 8.3 5 Norte 11 Norte 0 -- -- 75
2019-11-25 03:00:00 9.3 8 Norte 14 Noroeste 0 -- -- 73
2019-11-25 02:00:00 8.2 3 Norte 8 Norte 0 -- -- 82
2019-11-25 01:00:00 8.5 0 Calma 10 Noroeste 0 -- -- 81
2019-11-25 00:00:00 7.8 0 Calma 10 Noroeste 0 -- -- 82
2019-11-24 23:00:00 10.1 6 Noroeste 12 Noroeste 0 -- -- 73
2019-11-24 22:00:00 9.1 5 Norte 12 Norte 0 -- -- 87
2019-11-24 21:00:00 9.3 5 Norte 9 Norte 0 -- -- 87
2019-11-24 20:00:00 9.8 6 Norte 11 Norte 0 -- -- 84
2019-11-24 19:00:00 10.1 5 Norte 8 Norte 0 -- -- 84
2019-11-24 18:00:00 10.8 3 Norte 5 Norte 0 -- -- 82
2019-11-24 17:00:00 13.1 3 Sur 12 Sudoeste 0 -- -- 68
2019-11-24 16:00:00 14.5 5 Sur 14 Sur 0 -- -- 59
2019-11-24 15:00:00 15 6 Sur 12 Sur 0 -- -- 55
2019-11-24 14:00:00 16 3 Sudeste 10 Nordeste 0 -- -- 50
2019-11-24 13:00:00 17 4 Sudeste 14 Nordeste 0 -- -- 45
2019-11-24 12:00:00 17.1 2 Este 12 Nordeste 0 -- -- 44
2019-11-24 11:00:00 17.6 0 Calma 12 Este 0 -- -- 46
2019-11-24 10:00:00 14.9 2 Norte 14 Norte 0 -- -- 58
2019-11-24 09:00:00 10.8 8 Norte 14 Norte 0 -- -- 66
2019-11-24 08:00:00 8.9 2 Norte 13 Norte 0 -- -- 77
2019-11-24 07:00:00 9.3 4 Norte 13 Norte 0 -- -- 77
2019-11-24 06:00:00 10 6 Norte 14 Norte 0 -- -- 72
2019-11-24 05:00:00 10.6 7 Norte 16 Norte 0 -- -- 75
2019-11-24 04:00:00 10.3 4 Norte 8 Norte 0 -- -- 70
2019-11-24 03:00:00 10.3 5 Norte 9 Norte 0 -- -- 64
2019-11-24 02:00:00 10.4 5 Norte 9 Norte 0 -- -- 64
2019-11-24 01:00:00 10.5 3 Norte 8 Norte 0 -- -- 61
2019-11-24 00:00:00 11 0 Calma 6 Sur 0 -- -- 57
2019-11-23 23:00:00 12.1 0 Calma 14 Sur 0 -- -- 51
2019-11-23 22:00:00 12.6 4 Este 38 Oeste 0 -- -- 50
2019-11-23 21:00:00 12.6 14 Noroeste 36 Noroeste 0 -- -- 50
2019-11-23 20:00:00 12.9 17 Noroeste 39 Noroeste 0 -- -- 49
2019-11-23 19:00:00 13.2 13 Noroeste 30 Oeste 0 -- -- 50
2019-11-23 18:00:00 13.3 9 Noroeste 21 Noroeste 0 -- -- 54
2019-11-23 17:00:00 13.7 5 Sudoeste 14 Noroeste 0 -- -- 55
2019-11-23 16:00:00 15.8 3 Noroeste 19 Noroeste 0 -- -- 46
2019-11-23 15:00:00 15.6 6 Noroeste 40 Noroeste 0 -- -- 45
2019-11-23 14:00:00 15.6 13 Noroeste 35 Oeste 0 -- -- 44
2019-11-23 13:00:00 16.3 12 Noroeste 36 Noroeste 0 -- -- 44
2019-11-23 12:00:00 15.5 11 Noroeste 33 Noroeste 0 -- -- 48
2019-11-23 11:00:00 13.6 7 Noroeste 22 Oeste 0 -- -- 54
2019-11-23 10:00:00 11.8 3 Sudeste 18 Oeste 0 -- -- 71
2019-11-23 09:00:00 11.8 6 Sur 12 Sur 0 -- -- 74
2019-11-23 08:00:00 9.8 0 Calma 12 Sudoeste 0 -- -- 83
2019-11-23 07:00:00 10.3 4 Oeste 10 Oeste 0 -- -- 83
2019-11-23 06:00:00 10.6 2 Oeste 12 Oeste 0 -- -- 87
2019-11-23 05:00:00 11.7 5 Sudoeste 27 Noroeste 0 -- -- 81
2019-11-23 04:00:00 13.1 9 Noroeste 26 Noroeste 1.5 -- -- 87
2019-11-23 03:00:00 14.1 3 Sudoeste 31 Sur 12.6 -- -- 90
2019-11-23 02:00:00 15.1 12 Sur 32 Sur 0.4 -- -- 90
2019-11-23 01:00:00 15.1 14 Sur 35 Sur 0.3 -- -- 90
2019-11-23 00:00:00 14.9 15 Sur 43 Sur 0.5 -- -- 90
2019-11-22 23:00:00 15 12 Sur 35 Sudoeste 0.3 -- -- 90
2019-11-22 22:00:00 14.9 14 Sur 44 Sur 3.2 -- -- 91
2019-11-22 21:00:00 14.7 14 Sur 36 Sudoeste 4.5 -- -- 91
2019-11-22 20:00:00 14.6 10 Sur 30 Sudoeste 4.3 -- -- 91
2019-11-22 19:00:00 14.5 4 Sur 13 Sur 0.9 -- -- 88
2019-11-22 18:00:00 14.8 7 Sur 18 Sudoeste 0 -- -- 79
2019-11-22 17:00:00 14.8 8 Sur 16 Sur 0 -- -- 76
2019-11-22 16:00:00 14.7 5 Sur 17 Sur 0 -- -- 76
2019-11-22 15:00:00 15.2 8 Sur 18 Sudoeste 0 -- -- 73
2019-11-22 14:00:00 16.9 5 Sur 15 Sudoeste 0 -- -- 68
2019-11-22 13:00:00 14.2 3 Sur 14 Sur 0 -- -- 80
2019-11-22 12:00:00 14.6 0 Calma 9 Este 0 -- -- 77
2019-11-22 11:00:00 17.1 2 Sur 6 Sur 0 -- -- 61
2019-11-22 10:00:00 14.5 0 Calma 14 Oeste 0 -- -- 75
2019-11-22 09:00:00 12 3 Norte 7 Norte 0 -- -- 79
2019-11-22 08:00:00 11.2 2 Norte 6 Norte 0 -- -- 79
2019-11-22 07:00:00 10.5 3 Norte 7 Norte 0 -- -- 78
2019-11-22 06:00:00 8.7 4 Norte 10 Nordeste 0 -- -- 75
2019-11-22 05:00:00 8.6 4 Nordeste 9 Norte 0 -- -- 67
2019-11-22 04:00:00 8.5 0 Calma 7 Sudoeste 0 -- -- 63
2019-11-22 03:00:00 11.2 5 Sudoeste 12 Sudoeste 0 -- -- 51
2019-11-22 02:00:00 12.1 3 Oeste 20 Noroeste 0 -- -- 52
2019-11-22 01:00:00 12.5 7 Oeste 22 Oeste 0 -- -- 60
2019-11-22 00:00:00 12.1 7 Noroeste 25 Noroeste 0 -- -- 61
2019-11-21 23:00:00 11.8 8 Noroeste 25 Noroeste 0 -- -- 59
2019-11-21 22:00:00 11.7 6 Noroeste 19 Oeste 0 -- -- 57
2019-11-21 21:00:00 11.4 6 Oeste 15 Noroeste 0 -- -- 53
2019-11-21 20:00:00 11.7 4 Oeste 15 Oeste 0 -- -- 51
2019-11-21 19:00:00 11.2 3 Oeste 15 Sudoeste 0 -- -- 52
2019-11-21 18:00:00 12.4 6 Sudoeste 16 Oeste 0 -- -- 49
2019-11-21 17:00:00 13 5 Oeste 18 Sudoeste 0 -- -- 48
2019-11-21 16:00:00 14 6 Sudoeste 22 Sudoeste 0 -- -- 47
2019-11-21 15:00:00 14.2 8 Sudoeste 21 Sudoeste 0 -- -- 48
2019-11-21 14:00:00 14.1 12 Sur 22 Sudoeste 0 -- -- 49
2019-11-21 13:00:00 15.7 8 Oeste 18 Sudoeste 0 -- -- 42
2019-11-21 12:00:00 15 5 Sudoeste 17 Sur 0 -- -- 45
2019-11-21 11:00:00 16.1 5 Sudoeste 13 Sur 0 -- -- 41
2019-11-21 10:00:00 14 2 Sur 10 Noroeste 0 -- -- 54
2019-11-21 09:00:00 10.3 3 Oeste 11 Oeste 0 -- -- 65
2019-11-21 08:00:00 -- -- -- -- -- -- -- -- --
2019-11-21 07:00:00 -- -- -- -- -- -- -- -- --
2019-11-21 06:00:00 -- -- -- -- -- -- -- -- --
2019-11-21 05:00:00 -- -- -- -- -- -- -- -- --
2019-11-21 04:00:00 -- -- -- -- -- -- -- -- --
2019-11-21 03:00:00 -- -- -- -- -- -- -- -- --
2019-11-21 02:00:00 -- -- -- -- -- -- -- -- --
2019-11-21 01:00:00 -- -- -- -- -- -- -- -- --
2019-11-21 00:00:00 -- -- -- -- -- -- -- -- --
2019-11-20 23:00:00 -- -- -- -- -- -- -- -- --
2019-11-20 22:00:00 -- -- -- -- -- -- -- -- --
2019-11-20 21:00:00 -- -- -- -- -- -- -- -- --
2019-11-20 20:00:00 -- -- -- -- -- -- -- -- --
2019-11-20 19:00:00 10.8 3 Oeste 10 Oeste 0 -- -- 67
2019-11-20 18:00:00 10.5 3 Oeste 11 Sudoeste 0 -- -- 71
2019-11-20 17:00:00 12.1 4 Sudoeste 17 Sudoeste 0 -- -- 62
2019-11-20 16:00:00 12.7 6 Sur 19 Sur 0 -- -- 60
2019-11-20 15:00:00 13.2 9 Sur 19 Sur 0 -- -- 56
2019-11-20 14:00:00 14.6 5 Sudoeste 20 Sudoeste 0 -- -- 49
2019-11-20 13:00:00 13.3 8 Sudoeste 19 Sudoeste 0 -- -- 51
2019-11-20 12:00:00 12.5 9 Sur 20 Sudoeste 0 -- -- 49
2019-11-20 11:00:00 13.8 6 Sudoeste 19 Sudoeste 0 -- -- 45
2019-11-20 10:00:00 13.5 6 Sudoeste 15 Oeste 0 -- -- 47
2019-11-20 09:00:00 8 3 Noroeste 10 Norte 0 -- -- 69
2019-11-20 08:00:00 5.3 5 Norte 14 Sudoeste 0 -- -- 71
2019-11-20 07:00:00 6.9 9 Sudoeste 14 Sudoeste 0 -- -- 62
2019-11-20 06:00:00 4.1 4 Norte 8 Norte 0 -- -- 81
2019-11-20 05:00:00 4.3 4 Norte 9 Norte 0 -- -- 79
2019-11-20 04:00:00 4.6 4 Norte 7 Norte 0 -- -- 75
2019-11-20 03:00:00 5.1 3 Nordeste 9 Norte 0 -- -- 75
2019-11-20 02:00:00 6.2 6 Norte 14 Norte 0 -- -- 72
2019-11-20 01:00:00 6.2 6 Norte 14 Norte 0 -- -- 79
2019-11-20 00:00:00 6.8 8 Norte 14 Norte 0 -- -- 78
2019-11-19 23:00:00 7 8 Norte 14 Norte 0 -- -- 75
2019-11-19 22:00:00 7.2 9 Norte 17 Norte 0 -- -- 75
2019-11-19 21:00:00 7.8 9 Norte 16 Norte 0 -- -- 76
2019-11-19 20:00:00 7.3 6 Norte 11 Norte 0 -- -- 82
2019-11-19 19:00:00 7.2 4 Noroeste 9 Norte 0 -- -- 80
2019-11-19 18:00:00 8.5 4 Norte 6 Norte 0 -- -- 75
2019-11-19 17:00:00 10.9 3 Sur 10 Sur 0 -- -- 61
2019-11-19 16:00:00 12 4 Sur 11 Sudoeste 0 -- -- 56
2019-11-19 15:00:00 12.5 5 Sur 14 Sur 0 -- -- 55
2019-11-19 14:00:00 12.4 6 Sur 16 Sudoeste 0 -- -- 50
2019-11-19 13:00:00 13.9 5 Sudoeste 15 Sur 0 -- -- 46
2019-11-19 12:00:00 13.7 5 Sur 11 Sur 0 -- -- 45
2019-11-19 11:00:00 13.8 3 Sudeste 9 Sur 0 -- -- 43
2019-11-19 10:00:00 12.2 0 Calma 10 Norte 0 -- -- 52
2019-11-19 09:00:00 8.3 5 Norte 12 Norte 0 -- -- 75
2019-11-19 08:00:00 5 5 Norte 14 Noroeste 0 -- -- 81
2019-11-19 07:00:00 5.5 6 Norte 15 Norte 0 -- -- 75
2019-11-19 06:00:00 5.5 2 Noroeste 11 Norte 0 -- -- 79
2019-11-19 05:00:00 6.9 6 Norte 11 Norte 0 -- -- 75
2019-11-19 04:00:00 6.6 4 Noroeste 12 Noroeste 0 -- -- 75
2019-11-19 03:00:00 6.4 6 Norte 15 Norte 0 -- -- 75
2019-11-19 02:00:00 7.6 7 Norte 13 Norte 0 -- -- 74
2019-11-19 01:00:00 6.3 4 Noroeste 11 Norte 0 -- -- 82
2019-11-19 00:00:00 6.7 6 Norte 16 Nordeste 0 -- -- 76
2019-11-18 23:00:00 7.6 5 Norte 10 Norte 0 -- -- 77
2019-11-18 22:00:00 7.9 5 Norte 9 Norte 0 -- -- 77
2019-11-18 21:00:00 9 4 Noroeste 10 Norte 0 -- -- 65
2019-11-18 20:00:00 9.5 7 Norte 17 Norte 0 -- -- 59
2019-11-18 19:00:00 9.4 5 Norte 11 Norte 0 -- -- 65
2019-11-18 18:00:00 9.8 4 Norte 8 Norte 0 -- -- 61
2019-11-18 17:00:00 11.4 0 Calma 8 Noroeste 0 -- -- 52
2019-11-18 16:00:00 13.1 5 Noroeste 11 Noroeste 0 -- -- 44
2019-11-18 15:00:00 12.9 4 Norte 19 Norte 0 -- -- 44
2019-11-18 14:00:00 12.8 7 Norte 19 Noroeste 0 -- -- 42
2019-11-18 13:00:00 13.6 0 Calma 28 Norte 0 -- -- 46
2019-11-18 12:00:00 12.6 12 Norte 27 Norte 0 -- -- 51
2019-11-18 11:00:00 12 6 Nordeste 30 Norte 0 -- -- 53
2019-11-18 10:00:00 11.7 7 Norte 24 Norte 0 -- -- 55
2019-11-18 09:00:00 10.1 13 Norte 35 Noroeste 0 -- -- 63
2019-11-18 08:00:00 9.7 12 Norte 23 Norte 0 -- -- 65
2019-11-18 07:00:00 9.5 13 Norte 28 Norte 0 -- -- 68
2019-11-18 06:00:00 9.7 12 Norte 26 Norte 0 -- -- 69
2019-11-18 05:00:00 7.8 6 Norte 12 Norte 0 -- -- 70
2019-11-18 04:00:00 6.6 6 Norte 15 Norte 0 -- -- 73
2019-11-18 03:00:00 7 7 Norte 13 Noroeste 0 -- -- 72
2019-11-18 02:00:00 8 4 Nordeste 16 Noroeste 0 -- -- 66
2019-11-18 01:00:00 9.3 5 Norte 15 Sudoeste 0 -- -- 65
2019-11-18 00:00:00 9.7 5 Oeste 12 Sudoeste 0 -- -- 64
2019-11-17 23:00:00 10.5 5 Sudoeste 12 Sudoeste 0 -- -- 59
2019-11-17 22:00:00 9.2 4 Norte 8 Norte 0 -- -- 69
2019-11-17 21:00:00 8.5 3 Norte 12 Norte 0 -- -- 68
2019-11-17 20:00:00 8.8 3 Norte 8 Norte 0 -- -- 65
2019-11-17 19:00:00 9.2 4 Norte 10 Noroeste 0 -- -- 60
2019-11-17 18:00:00 9.7 5 Sudoeste 11 Sudoeste 0 -- -- 58
2019-11-17 17:00:00 11.9 5 Sudoeste 13 Sudoeste 0 -- -- 49
2019-11-17 16:00:00 12.8 4 Sur 16 Sur 0 -- -- 50
2019-11-17 15:00:00 12.8 8 Sur 25 Sur 0 -- -- 44
2019-11-17 14:00:00 13.2 9 Sudoeste 21 Sudoeste 0 -- -- 41
2019-11-17 13:00:00 13.5 0 Calma 16 Sudoeste 0 -- -- 39
2019-11-17 12:00:00 13.4 2 Sudeste 15 Sur 0 -- -- 37
2019-11-17 11:00:00 12.6 2 Sudeste 11 Sudoeste 0 -- -- 44
2019-11-17 10:00:00 9.9 4 Noroeste 10 Noroeste 0 -- -- 57
2019-11-17 09:00:00 7.5 5 Norte 13 Norte 0 -- -- 62
2019-11-17 08:00:00 4.9 8 Norte 13 Norte 0 -- -- 70
2019-11-17 07:00:00 3.9 0 Calma 9 Noroeste 0 -- -- 72
2019-11-17 06:00:00 5.1 3 Noroeste 8 Norte 0 -- -- 65
2019-11-17 05:00:00 6.9 3 Norte 15 Noroeste 0 -- -- 59
2019-11-17 04:00:00 6.6 6 Norte 17 Sudoeste 0 -- -- 57
2019-11-17 03:00:00 8.1 9 Sudoeste 21 Sudoeste 0 -- -- 52
2019-11-17 02:00:00 8 6 Oeste 15 Noroeste 0 -- -- 57
2019-11-17 01:00:00 6.9 8 Norte 16 Nordeste 0 -- -- 64
2019-11-17 00:00:00 7 9 Norte 18 Norte 0 -- -- 64
2019-11-16 23:00:00 8 10 Norte 23 Noroeste 0 -- -- 61
2019-11-16 22:00:00 8.4 9 Noroeste 20 Noroeste 0 -- -- 57
2019-11-16 21:00:00 5.5 3 Norte 6 Noroeste 0 -- -- 63
2019-11-16 20:00:00 8.5 5 Noroeste 19 Oeste 0 -- -- 48
2019-11-16 19:00:00 7.9 3 Sudeste 12 Oeste 0 -- -- 50
2019-11-16 18:00:00 8.9 0 Calma 13 Sudoeste 0 -- -- 48
2019-11-16 17:00:00 11.3 6 Sudoeste 21 Sudoeste 0 -- -- 43
2019-11-16 16:00:00 12.8 7 Sudoeste 18 Sudoeste 0 -- -- 42
2019-11-16 15:00:00 12.9 7 Sur 17 Sur 0 -- -- 49
2019-11-16 14:00:00 12 8 Sur 18 Sudoeste 0 -- -- 50
2019-11-16 13:00:00 14.3 7 Sur 15 Sur 0 -- -- 44
2019-11-16 12:00:00 14.4 6 Sur 13 Sur 0 -- -- 42
2019-11-16 11:00:00 13.9 4 Sudeste 13 Este 0 -- -- 44
2019-11-16 10:00:00 12.9 2 Nordeste 10 Norte 0 -- -- 51
2019-11-16 09:00:00 8.6 4 Norte 10 Norte 0 -- -- 74
2019-11-16 08:00:00 7.1 6 Norte 12 Norte 0 -- -- 77
2019-11-16 07:00:00 6.5 3 Norte 7 Noroeste 0 -- -- 79
2019-11-16 06:00:00 5.9 4 Norte 7 Norte 0 -- -- 79
2019-11-16 05:00:00 7.5 6 Norte 10 Noroeste 0 -- -- 68
2019-11-16 04:00:00 6.9 6 Norte 14 Norte 0 -- -- 71
2019-11-16 03:00:00 6 10 Norte 17 Norte 0 -- -- 73
2019-11-16 02:00:00 5.8 9 Norte 17 Norte 0 -- -- 75
2019-11-16 01:00:00 5.1 7 Norte 12 Norte 0 -- -- 79
2019-11-16 00:00:00 5 2 Noroeste 13 Norte 0 -- -- 78
2019-11-15 23:00:00 6.4 8 Norte 14 Norte 0 -- -- 72
2019-11-15 22:00:00 5.5 0 Calma 7 Norte 0 -- -- 74
2019-11-15 21:00:00 7.8 0 Calma 15 Oeste 0 -- -- 60
2019-11-15 20:00:00 8 0 Calma 15 Sudoeste 0 -- -- 58
2019-11-15 19:00:00 8.6 7 Sudoeste 21 Oeste 0 -- -- 54
2019-11-15 18:00:00 8.8 3 Sudoeste 15 Sur 0 -- -- 53
2019-11-15 17:00:00 10.3 5 Oeste 19 Oeste 0 -- -- 46
2019-11-15 16:00:00 11.6 9 Oeste 23 Sudoeste 0 -- -- 40
2019-11-15 15:00:00 12.3 9 Sudoeste 26 Sudoeste 0 -- -- 39
2019-11-15 14:00:00 12.7 8 Oeste 17 Oeste 0 -- -- 37
2019-11-15 13:00:00 13.5 5 Sur 12 Sudoeste 0 -- -- 47
2019-11-15 12:00:00 12.2 5 Sudoeste 12 Sudoeste 0 -- -- 55
2019-11-15 11:00:00 10.4 2 Norte 10 Sudoeste 0 -- -- 68
2019-11-15 10:00:00 8.6 6 Norte 13 Norte 0 -- -- 74
2019-11-15 09:00:00 7.5 7 Norte 15 Norte 0 -- -- 74
2019-11-15 08:00:00 6.5 8 Norte 15 Norte 0 -- -- 78
2019-11-15 07:00:00 6.2 8 Norte 16 Norte 0 -- -- 79
2019-11-15 06:00:00 5.2 9 Norte 16 Norte 0 -- -- 84
2019-11-15 05:00:00 5.6 6 Norte 14 Norte 0 -- -- 81
2019-11-15 04:00:00 5.7 4 Norte 17 Norte 0 -- -- 83
2019-11-15 03:00:00 5.7 9 Norte 17 Norte 0 -- -- 87
2019-11-15 02:00:00 5.6 8 Norte 16 Norte 0 -- -- 90
2019-11-15 01:00:00 4.8 7 Norte 12 Norte 0 -- -- 90
2019-11-15 00:00:00 4.7 4 Noroeste 10 Norte 0 -- -- 91